Main page
Satellite images 15-day forecastsClimateMarine weather Cyclones Lightning AirportsFAQ Newsletter About
Weather : Europe Africa North America South America Asia Australia-Oceania Others
Languages Contact

Alpine, Texas, United States

Alpine-Casparis Municipal Airport

latitude: 30-23-03N, longitude: 103-41-00W, elevation: 1376 m


METAR: KE38 171915Z AUTO 13004KT 10SM SCT045 27/15 A3013 RMK AO2 T02670154
short-TAF: missing
long-TAF: missing

Time: 14:34 (19:34 UTC)

Current weather observation

The report was made 19 minutes ago, at 19:15 UTC  
Wind 04 kt from the Southeast
Temperature 27°C
Humidity 48%
Pressure 1020 hPa
Visibility 16.1 km
Scattered clouds at a height of 4500 ft

Change units
The information on this site is subject to a disclaimer
Weather : Europe Africa North America South America Asia Australia-Oceania Others
Satellite images 15-day forecastsClimateMarine weather Cyclones Lightning AirportsFAQ Languages Contact Newsletter About